Time;durP1;ratioP1;P1;durP2;ratioP2;P2;SDS_P1;SDS_P2;PMS_P1;PMS_P2;Temp;Humidity;BMP_temperature;BMP_pressure;BME280_temperature;BME280_humidity;BME280_pressure;Samples;Min_cycle;Max_cycle;Signal;HPM_P1;HPM_P2
2021/12/09 00:02:07;;;;;;;13.00;9.63;;;;;;;1.49;68.80;98747.05;1729137;81;21666;-59
2021/12/09 00:04:35;;;;;;;11.80;9.05;;;;;;;1.33;67.87;98754.55;1731669;82;21572;-59
2021/12/09 00:07:01;;;;;;;12.93;9.00;;;;;;;1.33;67.87;98754.55;1732194;81;21098;-59
2021/12/09 00:09:29;;;;;;;15.23;9.80;;;;;;;1.27;67.85;98751.16;1730717;82;21023;-59
2021/12/09 00:11:57;;;;;;;11.85;9.25;;;;;;;1.29;68.18;98753.17;1733547;81;21524;-59
2021/12/09 00:14:26;;;;;;;13.88;9.25;;;;;;;1.25;67.99;98750.47;1730936;82;21020;-59
2021/12/09 00:16:57;;;;;;;15.80;8.85;;;;;;;1.26;68.21;98752.11;1723898;82;21612;-59
2021/12/09 00:19:24;;;;;;;9.63;7.85;;;;;;;1.26;68.21;98752.11;1723174;81;21834;-60
2021/12/09 00:21:51;;;;;;;11.15;8.23;;;;;;;1.27;68.42;98759.02;1720913;82;20933;-59
2021/12/09 00:24:17;;;;;;;11.68;7.97;;;;;;;1.37;68.51;98753.83;1690161;84;21055;-59
2021/12/09 00:26:44;;;;;;;14.05;9.50;;;;;;;1.51;68.71;98763.98;1690295;83;20986;-59
2021/12/09 00:29:12;;;;;;;11.60;8.33;;;;;;;1.41;68.53;98759.17;1757525;80;21437;-59
2021/12/09 00:31:38;;;;;;;13.08;9.28;;;;;;;1.41;68.53;98759.17;1730178;82;21477;-59
2021/12/09 00:34:05;;;;;;;13.98;9.25;;;;;;;1.42;68.71;98766.89;1691838;84;20952;-59
2021/12/09 00:36:38;;;;;;;12.00;8.48;;;;;;;1.42;68.74;98766.06;1756575;80;20965;-59
2021/12/09 00:39:01;;;;;;;11.95;8.40;;;;;;;1.42;68.71;98764.27;1757273;80;20954;-60
2021/12/09 00:41:29;;;;;;;14.83;10.30;;;;;;;1.37;68.52;98766.45;1758426;81;21018;-60
2021/12/09 00:43:55;;;;;;;12.40;8.95;;;;;;;1.41;68.84;98769.66;1758431;80;21134;-60
2021/12/09 00:46:21;;;;;;;10.18;7.40;;;;;;;1.43;68.80;98771.66;1734206;82;21053;-59
2021/12/09 00:48:48;;;;;;;11.33;8.10;;;;;;;1.38;68.49;98769.91;1723924;82;21009;-59
2021/12/09 00:51:14;;;;;;;12.45;8.48;;;;;;;1.42;68.70;98765.59;1757664;80;21413;-59
2021/12/09 00:53:41;;;;;;;12.73;8.45;;;;;;;1.42;68.50;98758.20;1751014;80;20918;-59
2021/12/09 00:56:09;;;;;;;10.50;7.78;;;;;;;1.38;68.18;98763.36;1759125;80;21777;-59
2021/12/09 00:58:36;;;;;;;12.65;8.18;;;;;;;1.34;68.26;98764.09;1758063;80;21524;-59
2021/12/09 01:01:04;;;;;;;11.60;8.63;;;;;;;1.35;68.49;98763.62;1757617;80;21006;-60
2021/12/09 01:03:31;;;;;;;14.90;9.43;;;;;;;1.35;68.49;98763.62;1756541;81;20982;-60
2021/12/09 01:05:58;;;;;;;12.23;8.90;;;;;;;1.49;68.78;98771.95;1724657;82;20887;-58
2021/12/09 01:08:24;;;;;;;11.15;8.55;;;;;;;1.49;68.78;98771.95;1724310;83;21160;-59
2021/12/09 01:10:51;;;;;;;14.07;8.35;;;;;;;1.57;68.68;98769.99;1693046;83;21782;-59
2021/12/09 01:13:17;;;;;;;11.10;7.90;;;;;;;1.53;68.20;98759.44;1761344;80;20911;-59
2021/12/09 01:15:43;;;;;;;13.78;9.60;;;;;;;1.55;68.33;98758.34;1736033;82;21501;-60
2021/12/09 01:18:10;;;;;;;11.95;7.97;;;;;;;1.51;68.27;98762.67;1688167;84;20969;-59
2021/12/09 01:20:36;;;;;;;9.90;7.80;;;;;;;1.51;68.27;98762.67;1726293;82;21135;-59
2021/12/09 01:23:03;;;;;;;10.38;8.45;;;;;;;1.26;67.60;98757.35;1725805;82;21560;-59
2021/12/09 01:25:36;;;;;;;11.88;7.95;;;;;;;1.26;67.60;98757.35;1753723;80;20927;-59
2021/12/09 01:28:05;;;;;;;8.90;6.87;;;;;;;1.20;67.76;98760.48;1751897;80;21016;-59
2021/12/09 01:30:32;;;;;;;9.60;7.45;;;;;;;1.25;68.08;98761.76;1739894;80;21045;-59
2021/12/09 01:32:59;;;;;;;9.88;7.22;;;;;;;1.38;68.36;98759.44;1751768;80;21143;-60
2021/12/09 01:35:33;;;;;;;9.00;6.90;;;;;;;1.47;68.11;98756.84;1752922;80;21013;-60
2021/12/09 01:38:08;;;;;;;9.25;6.75;;;;;;;1.34;67.65;98763.25;1751555;81;20899;-59
2021/12/09 01:40:30;;;;;;;11.83;7.25;;;;;;;1.34;67.65;98763.25;1717905;82;21070;-58
2021/12/09 01:42:58;;;;;;;8.95;6.85;;;;;;;1.24;67.88;98774.53;1759636;80;21462;-59
2021/12/09 01:45:26;;;;;;;8.30;6.25;;;;;;;1.17;67.88;98766.00;1753339;80;22296;-59
2021/12/09 01:47:53;;;;;;;8.55;7.08;;;;;;;1.16;67.70;98770.88;1751254;80;21054;-59
2021/12/09 01:50:19;;;;;;;8.18;7.03;;;;;;;1.20;67.95;98770.48;1719157;82;20895;-59
2021/12/09 01:52:45;;;;;;;8.28;6.53;;;;;;;1.18;67.51;98763.24;1752520;80;20926;-59
2021/12/09 01:55:13;;;;;;;9.73;7.10;;;;;;;1.12;67.74;98757.70;1749097;80;20855;-59
2021/12/09 01:57:40;;;;;;;9.90;7.25;;;;;;;1.15;68.25;98750.39;1752687;80;21215;-59
2021/12/09 02:00:11;;;;;;;8.95;6.72;;;;;;;1.30;68.33;98752.70;1752057;80;20931;-59
2021/12/09 02:02:41;;;;;;;10.88;7.67;;;;;;;1.38;68.41;98748.95;1741907;80;20938;-59
2021/12/09 02:05:09;;;;;;;13.18;7.83;;;;;;;1.34;67.69;98746.22;1751971;81;20883;-59
2021/12/09 02:07:36;;;;;;;10.55;7.78;;;;;;;1.19;67.70;98748.36;1751700;80;21560;-60
2021/12/09 02:10:05;;;;;;;12.28;7.90;;;;;;;1.16;68.20;98753.84;1718117;82;21975;-59
2021/12/09 02:12:33;;;;;;;8.75;7.15;;;;;;;1.16;68.41;98748.14;1716515;82;21070;-59
2021/12/09 02:15:01;;;;;;;9.60;7.50;;;;;;;1.16;68.41;98748.14;1688585;84;20898;-59
2021/12/09 02:17:28;;;;;;;11.78;8.08;;;;;;;1.15;68.29;98749.08;1728670;81;20979;-59
2021/12/09 02:19:59;;;;;;;10.03;7.40;;;;;;;1.15;68.30;98744.31;1724343;83;21003;-59
2021/12/09 02:22:27;;;;;;;11.53;7.35;;;;;;;1.11;68.46;98748.17;1691589;84;21175;-59
2021/12/09 02:24:55;;;;;;;11.88;7.83;;;;;;;1.12;68.23;98750.65;1720553;82;21028;-60
2021/12/09 02:27:23;;;;;;;11.88;8.53;;;;;;;1.11;68.09;98749.00;1720494;81;21028;-60
2021/12/09 02:29:51;;;;;;;11.15;8.38;;;;;;;1.08;67.84;98754.50;1723620;82;20899;-60
2021/12/09 02:32:18;;;;;;;11.53;7.58;;;;;;;1.02;67.93;98754.16;1756925;80;20855;-60
2021/12/09 02:34:45;;;;;;;10.40;7.55;;;;;;;0.98;67.92;98754.92;1724760;82;21498;-60
2021/12/09 02:37:14;;;;;;;11.50;6.40;;;;;;;0.99;68.10;98752.63;1725903;81;20993;-60
2021/12/09 02:39:42;;;;;;;9.75;6.17;;;;;;;0.94;67.97;98756.11;1691147;84;21439;-59
2021/12/09 02:42:09;;;;;;;7.12;5.80;;;;;;;0.92;67.45;98755.42;1685888;84;20972;-59
2021/12/09 02:44:37;;;;;;;8.18;6.05;;;;;;;0.84;67.36;98753.07;1759419;80;20958;-59
2021/12/09 02:47:04;;;;;;;6.08;5.42;;;;;;;0.80;67.27;98749.89;1760625;80;21470;-60
2021/12/09 02:49:31;;;;;;;7.37;5.03;;;;;;;0.79;67.43;98755.23;1746746;81;20883;-59
2021/12/09 02:51:59;;;;;;;6.53;5.33;;;;;;;0.77;67.48;98754.55;1732792;82;21568;-58
2021/12/09 02:54:26;;;;;;;8.18;5.75;;;;;;;0.79;67.50;98754.77;1724898;81;20994;-59
2021/12/09 02:56:56;;;;;;;9.35;5.95;;;;;;;0.79;67.43;98756.08;1691732;84;22290;-59
2021/12/09 02:59:22;;;;;;;9.58;6.20;;;;;;;0.83;67.42;98760.13;1695760;83;21481;-59
2021/12/09 03:02:00;;;;;;;7.72;5.28;;;;;;;0.82;67.76;98765.00;1757337;81;20887;-59
2021/12/09 03:04:18;;;;;;;8.20;5.60;;;;;;;0.85;68.00;98762.60;1724623;82;20987;-59
2021/12/09 03:06:45;;;;;;;7.53;5.05;;;;;;;0.87;68.21;98760.20;1758180;80;20938;-59
2021/12/09 03:09:16;;;;;;;9.55;5.72;;;;;;;0.89;68.26;98760.91;1754200;80;21021;-59
2021/12/09 03:11:45;;;;;;;8.48;5.60;;;;;;;0.89;68.03;98762.69;1758409;81;21170;-59
2021/12/09 03:14:11;;;;;;;8.13;5.12;;;;;;;0.84;68.04;98764.38;1723358;81;20887;-59
2021/12/09 03:16:39;;;;;;;7.70;5.45;;;;;;;0.79;68.29;98765.24;1757062;80;20950;-59
2021/12/09 03:19:07;;;;;;;11.00;5.75;;;;;;;0.77;68.26;98765.86;1754260;80;21005;-59
2021/12/09 03:21:40;;;;;;;7.17;5.40;;;;;;;0.79;68.59;98768.33;1751921;81;21078;-59
2021/12/09 03:24:09;;;;;;;8.63;5.42;;;;;;;0.32;70.26;98778.27;1752172;80;21121;-59
2021/12/09 03:26:44;;;;;;;8.65;5.95;;;;;;;0.22;70.57;98781.27;1751799;80;20903;-59
2021/12/09 03:29:12;;;;;;;9.75;6.53;;;;;;;0.20;70.74;98784.96;1751134;80;21078;-59
2021/12/09 03:31:42;;;;;;;8.50;5.78;;;;;;;0.22;70.72;98789.59;1751854;80;20911;-59
2021/12/09 03:34:10;;;;;;;9.03;5.25;;;;;;;0.13;70.77;98788.52;1715291;82;20911;-59
2021/12/09 03:36:37;;;;;;;8.95;5.67;;;;;;;0.13;71.02;98786.41;1751894;80;21131;-59
2021/12/09 03:39:08;;;;;;;7.67;5.30;;;;;;;0.15;71.23;98787.11;1753177;80;21052;-59
2021/12/09 03:41:34;;;;;;;9.08;5.85;;;;;;;0.16;71.13;98790.90;1746427;80;20950;-59
2021/12/09 03:44:01;;;;;;;8.95;6.25;;;;;;;0.30;71.22;98798.97;1727502;81;20943;-59
2021/12/09 03:46:28;;;;;;;10.40;6.55;;;;;;;0.36;71.08;98800.62;1751897;80;21533;-59
2021/12/09 03:48:54;;;;;;;8.73;5.92;;;;;;;0.42;71.31;98807.13;1753199;80;21054;-59
2021/12/09 03:51:22;;;;;;;8.70;6.03;;;;;;;0.59;71.45;98806.16;1751948;80;20851;-59
2021/12/09 03:53:48;;;;;;;8.90;6.05;;;;;;;0.71;71.00;98799.55;1718356;82;20932;-58
2021/12/09 03:56:14;;;;;;;8.08;6.45;;;;;;;0.69;70.68;98814.55;1717914;82;21025;-59
2021/12/09 03:58:41;;;;;;;9.23;6.20;;;;;;;0.61;70.67;98812.56;1720806;81;20883;-59
2021/12/09 04:01:07;;;;;;;9.35;6.25;;;;;;;0.59;70.65;98811.86;1752111;80;21502;-60
2021/12/09 04:03:34;;;;;;;10.32;6.58;;;;;;;0.54;70.85;98808.78;1751899;81;20966;-59
2021/12/09 04:06:00;;;;;;;8.75;6.15;;;;;;;0.56;70.87;98806.39;1751820;80;20892;-59
2021/12/09 04:08:26;;;;;;;7.90;6.12;;;;;;;0.55;70.58;98811.27;1718067;82;21532;-59
2021/12/09 04:10:53;;;;;;;9.48;5.97;;;;;;;0.46;70.42;98811.18;1713017;83;21005;-59
2021/12/09 04:13:19;;;;;;;8.90;6.12;;;;;;;0.42;70.51;98814.52;1713151;82;21087;-59
2021/12/09 04:15:47;;;;;;;7.60;6.37;;;;;;;0.42;70.57;98816.29;1752408;80;21205;-60
2021/12/09 04:18:15;;;;;;;8.93;6.53;;;;;;;0.39;70.80;98821.30;1737980;81;20943;-59
2021/12/09 04:20:41;;;;;;;8.08;5.87;;;;;;;0.46;70.70;98815.11;1729247;82;21493;-60
2021/12/09 04:23:08;;;;;;;7.42;5.42;;;;;;;0.44;70.48;98826.19;1732451;81;20848;-60
2021/12/09 04:25:34;;;;;;;9.53;6.12;;;;;;;0.40;70.38;98828.20;1729636;83;21147;-59
2021/12/09 04:28:01;;;;;;;10.05;6.30;;;;;;;0.37;70.39;98831.06;1734077;81;21417;-59
2021/12/09 04:30:29;;;;;;;8.88;6.10;;;;;;;0.36;70.43;98836.42;1730230;81;20962;-59
2021/12/09 04:32:55;;;;;;;10.50;7.10;;;;;;;0.37;70.62;98828.91;1732815;82;20950;-58
2021/12/09 04:35:22;;;;;;;9.30;6.20;;;;;;;0.38;70.66;98832.73;1729928;82;21124;-60
2021/12/09 04:37:50;;;;;;;13.50;6.92;;;;;;;0.40;70.51;98824.75;1730925;82;21147;-59
2021/12/09 04:40:16;;;;;;;11.28;6.60;;;;;;;0.42;70.46;98834.14;1730305;81;20930;-60
2021/12/09 04:42:43;;;;;;;11.97;6.53;;;;;;;0.38;70.15;98833.20;1729898;81;20995;-59
2021/12/09 04:45:10;;;;;;;10.38;6.92;;;;;;;0.37;69.84;98830.22;1730324;81;21452;-60
2021/12/09 04:47:36;;;;;;;11.33;6.50;;;;;;;0.37;69.95;98831.53;1729767;81;20914;-60
2021/12/09 04:50:05;;;;;;;9.25;6.65;;;;;;;0.34;69.80;98834.41;1730362;81;21069;-59
2021/12/09 04:52:31;;;;;;;9.83;6.53;;;;;;;0.30;69.86;98836.43;1724440;81;21397;-59
2021/12/09 04:54:58;;;;;;;10.72;7.03;;;;;;;0.26;69.76;98835.50;1731441;82;20947;-59
2021/12/09 04:57:24;;;;;;;11.08;7.28;;;;;;;0.25;69.98;98838.58;1730829;81;21068;-59
2021/12/09 04:59:51;;;;;;;9.53;6.10;;;;;;;0.25;70.07;98849.52;1730464;81;20911;-59
2021/12/09 05:02:30;;;;;;;9.93;6.53;;;;;;;0.24;70.30;98858.30;1705641;83;21158;-59
2021/12/09 05:04:49;;;;;;;10.13;6.70;;;;;;;0.32;70.50;98860.69;1733067;81;21436;-59
2021/12/09 05:07:17;;;;;;;11.93;8.55;;;;;;;0.32;70.42;98861.16;1733814;81;20985;-59
2021/12/09 05:09:50;;;;;;;12.53;8.58;;;;;;;0.35;70.36;98864.38;1731595;82;21001;-61
2021/12/09 05:12:13;;;;;;;9.90;6.72;;;;;;;0.39;70.48;98867.09;1701512;83;20982;-59
2021/12/09 05:14:39;;;;;;;12.82;8.03;;;;;;;0.36;70.58;98869.97;1675710;84;21222;-60
2021/12/09 05:17:06;;;;;;;11.73;6.95;;;;;;;0.42;70.67;98866.02;1731924;80;21476;-60
2021/12/09 05:19:32;;;;;;;13.95;8.10;;;;;;;0.43;70.83;98861.98;1745026;81;21378;-59
2021/12/09 05:21:58;;;;;;;12.93;8.65;;;;;;;0.48;70.80;98865.53;1758374;80;21041;-59
2021/12/09 05:24:25;;;;;;;13.25;7.97;;;;;;;0.46;70.79;98866.14;1757725;80;21066;-60
2021/12/09 05:26:54;;;;;;;16.93;9.50;;;;;;;0.47;70.49;98869.12;1755236;80;21071;-60
2021/12/09 05:29:22;;;;;;;15.45;9.53;;;;;;;0.49;70.74;98860.67;1759559;80;21009;-61
2021/12/09 05:34:44;;;;;;;12.78;8.30;;;;;;;0.49;70.60;98871.97;1757063;80;21488;-59
2021/12/09 05:37:14;;;;;;;11.50;7.85;;;;;;;0.47;70.81;98883.52;1758518;81;20895;-60
2021/12/09 05:39:41;;;;;;;11.80;8.43;;;;;;;0.53;71.02;98886.47;1757458;80;21076;-60
2021/12/09 05:42:09;;;;;;;11.80;7.72;;;;;;;0.60;71.02;98888.94;1757924;80;20886;-60
2021/12/09 05:44:35;;;;;;;13.32;8.20;;;;;;;0.66;70.93;98891.55;1760074;80;21025;-63
2021/12/09 05:47:02;;;;;;;14.98;8.65;;;;;;;0.63;70.82;98890.48;1755489;80;21493;-61
2021/12/09 05:49:29;;;;;;;14.93;8.50;;;;;;;0.57;70.78;98885.25;1757882;80;21605;-62
2021/12/09 05:51:55;;;;;;;13.18;9.05;;;;;;;0.64;71.21;98890.84;1757645;81;21206;-59
2021/12/09 05:54:22;;;;;;;18.62;9.53;;;;;;;0.64;71.21;98890.84;1754573;80;20968;-63
2021/12/09 05:56:49;;;;;;;17.67;9.48;;;;;;;0.92;70.50;98885.53;1755620;80;21027;-60
2021/12/09 05:59:17;;;;;;;14.90;10.63;;;;;;;0.70;70.77;98889.06;1756228;80;21067;-60
2021/12/09 06:01:43;;;;;;;14.25;9.13;;;;;;;0.71;70.91;98892.48;1755548;80;21449;-60
2021/12/09 06:04:10;;;;;;;14.98;8.68;;;;;;;0.73;70.32;98891.41;1757839;81;21163;-59
2021/12/09 06:06:37;;;;;;;12.37;9.25;;;;;;;0.68;70.73;98888.33;1756796;80;21036;-64
2021/12/09 06:09:06;;;;;;;19.67;9.45;;;;;;;0.68;70.73;98888.33;1759696;80;21039;-63
2021/12/09 06:11:34;;;;;;;15.63;9.68;;;;;;;0.66;70.68;98889.41;1746676;80;20950;-62
2021/12/09 06:14:02;;;;;;;15.15;9.38;;;;;;;0.67;70.79;98888.46;1758398;80;20978;-60
2021/12/09 06:16:29;;;;;;;19.17;10.58;;;;;;;0.67;70.79;98888.46;1733319;82;21110;-61
2021/12/09 06:18:57;;;;;;;22.02;11.25;;;;;;;0.77;70.80;98895.46;1727828;82;20987;-60
2021/12/09 06:21:27;;;;;;;19.05;11.97;;;;;;;0.75;70.53;98893.92;1728305;81;21500;-61
2021/12/09 06:23:51;;;;;;;16.50;10.50;;;;;;;0.70;70.46;98899.53;1725013;81;20915;-60
2021/12/09 06:26:17;;;;;;;19.20;10.78;;;;;;;0.69;70.51;98897.86;1724482;81;20998;-60
2021/12/09 06:28:44;;;;;;;19.55;10.85;;;;;;;0.71;70.33;98897.72;1724791;81;21210;-61
2021/12/09 06:31:10;;;;;;;17.60;10.38;;;;;;;0.73;70.28;98893.22;1701196;83;21560;-61
2021/12/09 06:33:36;;;;;;;15.55;9.63;;;;;;;0.70;70.39;98896.08;1737530;81;20982;-60
2021/12/09 06:36:03;;;;;;;18.23;10.85;;;;;;;0.65;70.27;98899.55;1740240;81;20942;-62
2021/12/09 06:38:30;;;;;;;20.37;13.65;;;;;;;0.80;70.35;98900.93;1723695;83;20907;-59
2021/12/09 06:40:56;;;;;;;21.25;9.75;;;;;;;0.80;70.35;98900.93;1725856;81;20983;-59
2021/12/09 06:43:23;;;;;;;14.00;10.23;;;;;;;0.75;70.19;98898.69;1723768;81;21060;-60
2021/12/09 06:45:50;;;;;;;18.40;11.05;;;;;;;0.71;70.13;98901.65;1724976;83;20947;-60
2021/12/09 06:48:16;;;;;;;20.50;13.40;;;;;;;0.73;70.08;98899.27;1701311;84;21062;-60
2021/12/09 06:50:42;;;;;;;23.55;12.58;;;;;;;0.82;70.16;98893.78;1733577;81;21001;-60
2021/12/09 06:53:10;;;;;;;16.10;10.75;;;;;;;0.82;70.16;98893.78;1724394;83;21145;-61
2021/12/09 06:55:38;;;;;;;17.87;10.45;;;;;;;0.84;70.53;98897.94;1724405;83;20966;-60
2021/12/09 06:58:05;;;;;;;16.70;10.05;;;;;;;0.91;70.53;98891.74;1702426;82;20978;-60
2021/12/09 07:00:32;;;;;;;16.23;10.00;;;;;;;0.94;70.02;98898.05;1695912;84;21478;-61
2021/12/09 07:02:59;;;;;;;18.40;10.90;;;;;;;0.94;70.02;98898.05;1734827;81;21001;-61
2021/12/09 07:05:26;;;;;;;19.48;11.10;;;;;;;1.02;70.51;98900.84;1701201;83;21156;-61
2021/12/09 07:07:53;;;;;;;17.32;10.75;;;;;;;1.12;70.14;98902.59;1721434;83;20882;-61
2021/12/09 07:10:22;;;;;;;17.17;10.58;;;;;;;1.06;69.67;98908.83;1699363;84;20942;-62
2021/12/09 07:12:48;;;;;;;18.67;10.25;;;;;;;1.02;70.08;98908.23;1745713;81;21023;-62
2021/12/09 07:15:16;;;;;;;18.60;10.48;;;;;;;1.05;69.86;98916.32;1701538;84;21037;-61
2021/12/09 07:17:44;;;;;;;17.70;9.95;;;;;;;0.96;69.37;98915.30;1737552;81;20978;-60
2021/12/09 07:20:14;;;;;;;14.75;10.23;;;;;;;0.93;69.71;98928.64;1723672;82;20871;-60
2021/12/09 07:22:40;;;;;;;18.02;10.35;;;;;;;0.93;69.71;98928.64;1719268;82;21588;-61
2021/12/09 07:25:08;;;;;;;20.20;11.68;;;;;;;0.93;69.71;98936.50;1751759;81;21054;-60
2021/12/09 07:27:36;;;;;;;19.82;11.93;;;;;;;1.03;69.95;98940.51;1754677;80;20982;-60
2021/12/09 07:30:06;;;;;;;17.45;10.82;;;;;;;1.12;69.86;98935.34;1753376;80;21818;-62
2021/12/09 07:32:32;;;;;;;22.32;12.65;;;;;;;1.13;69.93;98929.16;1713130;82;20951;-61
2021/12/09 07:34:59;;;;;;;20.37;10.90;;;;;;;1.24;69.86;98935.68;1752744;81;21547;-61
2021/12/09 07:37:26;;;;;;;14.83;10.08;;;;;;;1.21;69.45;98937.23;1751362;80;20962;-62
2021/12/09 07:39:52;;;;;;;14.73;9.18;;;;;;;1.21;69.45;98937.23;1751824;80;20855;-61
2021/12/09 07:42:19;;;;;;;12.10;9.10;;;;;;;1.18;69.52;98938.79;1752027;80;22437;-62
2021/12/09 07:44:46;;;;;;;15.05;9.33;;;;;;;1.23;69.11;98942.34;1751304;81;20974;-61
2021/12/09 07:47:13;;;;;;;17.20;9.28;;;;;;;1.21;69.63;98940.33;1751859;80;20860;-60
2021/12/09 07:49:39;;;;;;;15.40;9.03;;;;;;;1.29;69.57;98948.87;1752774;81;21426;-59
2021/12/09 07:52:06;;;;;;;14.50;8.23;;;;;;;1.26;69.66;98953.88;1751766;80;20934;-61
2021/12/09 07:54:33;;;;;;;13.50;8.58;;;;;;;1.30;69.51;98954.01;1744930;80;21159;-61
2021/12/09 07:56:59;;;;;;;14.65;8.95;;;;;;;1.37;70.05;98953.85;1718979;83;21084;-62
2021/12/09 07:59:26;;;;;;;13.15;8.55;;;;;;;1.51;69.84;98949.60;1717270;82;21017;-62
2021/12/09 08:01:52;;;;;;;13.58;8.90;;;;;;;1.44;69.62;98957.63;1752000;80;20964;-62
2021/12/09 08:04:18;;;;;;;13.00;8.33;;;;;;;1.47;69.92;98954.76;1750333;81;20887;-60
2021/12/09 08:06:45;;;;;;;10.90;7.55;;;;;;;1.46;69.62;98954.39;1751772;80;21749;-61
2021/12/09 08:09:12;;;;;;;12.68;8.53;;;;;;;1.44;69.57;98961.55;1751317;80;21027;-61
2021/12/09 08:11:38;;;;;;;11.93;7.35;;;;;;;1.41;69.68;98955.25;1719006;82;20923;-61
2021/12/09 08:14:06;;;;;;;11.00;8.03;;;;;;;1.45;69.10;98955.38;1719767;81;21505;-61
2021/12/09 08:16:37;;;;;;;14.00;9.05;;;;;;;1.48;69.37;98959.53;1676553;85;21015;-61
2021/12/09 08:19:02;;;;;;;16.48;9.03;;;;;;;1.48;69.41;98958.22;1689231;84;21181;-61
2021/12/09 08:21:33;;;;;;;13.98;8.25;;;;;;;1.53;69.64;98958.67;1717949;82;21025;-62
2021/12/09 08:23:58;;;;;;;12.23;7.30;;;;;;;1.55;69.29;98952.81;1718075;82;21008;-61
2021/12/09 08:26:24;;;;;;;11.73;8.20;;;;;;;1.53;69.28;98958.67;1752251;80;21592;-63
2021/12/09 08:28:51;;;;;;;10.65;7.85;;;;;;;1.60;69.35;98959.81;1758115;80;20931;-61
2021/12/09 08:31:17;;;;;;;13.75;7.60;;;;;;;1.60;68.82;98959.34;1752065;80;21793;-61
2021/12/09 08:33:43;;;;;;;11.60;7.25;;;;;;;1.58;68.88;98952.09;1718340;83;20994;-61
2021/12/09 08:36:10;;;;;;;13.55;8.20;;;;;;;1.51;67.81;98950.91;1751906;80;20943;-63
2021/12/09 08:38:36;;;;;;;11.48;7.95;;;;;;;1.50;68.19;98947.95;1745562;80;21058;-62
2021/12/09 08:41:03;;;;;;;13.58;8.33;;;;;;;1.53;68.11;98946.41;1718708;83;20990;-61
2021/12/09 08:43:30;;;;;;;12.88;8.33;;;;;;;1.55;68.55;98944.95;1751458;80;21139;-61
2021/12/09 08:45:56;;;;;;;11.90;7.40;;;;;;;1.53;67.74;98945.56;1752167;81;20943;-61
2021/12/09 08:48:24;;;;;;;11.40;7.70;;;;;;;1.57;68.51;98937.78;1750849;81;20951;-61
2021/12/09 08:50:50;;;;;;;12.33;8.90;;;;;;;1.65;68.50;98940.13;1752031;80;20950;-60
2021/12/09 08:53:21;;;;;;;15.23;8.90;;;;;;;1.69;68.71;98935.00;1751542;81;21013;-62
2021/12/09 08:55:47;;;;;;;15.15;8.33;;;;;;;1.81;68.54;98931.81;1751263;81;21129;-62
2021/12/09 08:58:14;;;;;;;15.15;9.28;;;;;;;1.80;68.28;98927.52;1752014;80;20971;-62
2021/12/09 09:00:42;;;;;;;14.53;8.15;;;;;;;1.82;68.34;98930.87;1756978;80;20899;-61
2021/12/09 09:03:08;;;;;;;15.55;9.08;;;;;;;1.90;68.07;98929.75;1751613;80;20943;-62
2021/12/09 09:05:36;;;;;;;14.63;8.78;;;;;;;1.87;68.10;98928.69;1752235;80;21018;-62
2021/12/09 09:08:05;;;;;;;15.28;9.18;;;;;;;1.98;67.99;98923.38;1750923;80;21790;-62
2021/12/09 09:10:33;;;;;;;14.68;9.13;;;;;;;1.98;68.09;98922.54;1752026;81;21041;-62
2021/12/09 09:13:00;;;;;;;14.55;10.53;;;;;;;1.96;68.09;98920.03;1751498;80;21489;-62
2021/12/09 09:15:27;;;;;;;17.60;9.55;;;;;;;1.96;67.66;98918.72;1719025;82;21041;-61
2021/12/09 09:17:54;;;;;;;16.12;11.05;;;;;;;2.02;68.35;98914.27;1717907;82;20879;-63
2021/12/09 09:20:23;;;;;;;17.20;10.38;;;;;;;2.09;68.51;98908.84;1718823;82;21123;-62
2021/12/09 09:22:50;;;;;;;13.68;8.83;;;;;;;2.21;68.76;98909.13;1717691;82;20911;-61
2021/12/09 09:25:20;;;;;;;15.65;10.58;;;;;;;2.38;68.77;98905.87;1752179;80;21093;-61
2021/12/09 09:27:48;;;;;;;14.93;9.90;;;;;;;2.43;68.16;98908.92;1745551;80;21113;-63
2021/12/09 09:30:18;;;;;;;15.38;11.22;;;;;;;2.40;67.25;98903.09;1752144;81;20982;-61
2021/12/09 09:32:46;;;;;;;15.75;11.15;;;;;;;2.33;66.61;98901.97;1751833;80;21141;-62
2021/12/09 09:35:12;;;;;;;16.65;10.60;;;;;;;2.36;67.07;98901.23;1752046;80;20946;-62
2021/12/09 09:37:40;;;;;;;16.30;10.28;;;;;;;2.44;67.32;98905.83;1745375;81;21023;-62
2021/12/09 09:40:10;;;;;;;18.70;12.05;;;;;;;2.39;66.50;98902.77;1751687;80;20915;-63
2021/12/09 09:45:12;;;;;;;15.45;11.00;;;;;;;2.29;66.38;98906.67;1751819;81;21128;-60
2021/12/09 09:47:39;;;;;;;12.95;9.10;;;;;;;2.27;66.27;98897.24;1751567;80;20987;-61
2021/12/09 09:50:07;;;;;;;16.80;9.78;;;;;;;2.22;66.04;98902.89;1751944;80;21002;-60
2021/12/09 09:52:35;;;;;;;12.68;9.38;;;;;;;2.28;66.46;98898.92;1752343;81;20942;-61
2021/12/09 09:55:06;;;;;;;14.53;9.65;;;;;;;2.25;66.68;98899.17;1751939;80;20927;-62
2021/12/09 09:57:32;;;;;;;13.62;9.50;;;;;;;2.25;66.63;98899.17;1722331;81;21139;-61
2021/12/09 09:59:58;;;;;;;14.83;11.08;;;;;;;2.27;66.76;98894.62;1726173;81;20840;-60
2021/12/09 10:02:25;;;;;;;14.73;10.18;;;;;;;2.22;66.65;98890.25;1718240;83;21138;-61
2021/12/09 10:04:59;;;;;;;14.63;9.90;;;;;;;2.20;66.69;98890.39;1688868;84;20913;-60
2021/12/09 10:07:22;;;;;;;16.07;10.88;;;;;;;2.16;67.17;98886.39;1724961;82;20890;-60
2021/12/09 10:09:49;;;;;;;13.88;9.78;;;;;;;2.12;67.04;98878.88;1751657;80;21104;-61
2021/12/09 10:12:15;;;;;;;15.25;9.58;;;;;;;2.07;67.27;98881.08;1752249;80;21528;-60
2021/12/09 10:14:50;;;;;;;12.37;8.63;;;;;;;2.07;67.44;98877.14;1747197;80;20959;-61
2021/12/09 10:17:26;;;;;;;15.98;10.25;;;;;;;2.08;67.30;98886.69;1718853;83;20931;-62
2021/12/09 10:19:57;;;;;;;15.50;9.73;;;;;;;2.09;67.38;98872.58;1740734;80;20923;-60
2021/12/09 10:22:33;;;;;;;13.95;9.75;;;;;;;2.11;67.52;98876.73;1727700;81;22022;-61
2021/12/09 10:25:01;;;;;;;15.40;9.83;;;;;;;2.12;67.74;98882.82;1729422;82;20879;-60
2021/12/09 10:27:34;;;;;;;15.05;10.63;;;;;;;2.08;67.72;98870.94;1729772;81;20939;-61
2021/12/09 10:30:17;;;;;;;15.75;10.10;;;;;;;2.07;67.87;98870.10;1728986;81;20954;-61
2021/12/09 10:32:43;;;;;;;18.23;9.68;;;;;;;2.11;68.03;98874.11;1728952;81;20851;-61
2021/12/09 10:35:19;;;;;;;14.07;9.25;;;;;;;2.06;68.19;98868.94;1713543;83;21143;-63
2021/12/09 10:37:47;;;;;;;14.00;9.70;;;;;;;2.15;68.34;98870.28;1727046;82;26803;-62
2021/12/09 10:40:18;;;;;;;20.02;11.00;;;;;;;2.22;68.25;98869.25;1700738;83;20981;-61
2021/12/09 10:42:53;;;;;;;18.32;11.88;;;;;;;2.21;68.14;98868.92;1733182;82;21022;-61
2021/12/09 10:45:29;;;;;;;16.97;9.80;;;;;;;2.30;68.11;98871.57;1732086;82;20978;-61
2021/12/09 10:56:00;;;;;;;16.57;9.45;;;;;;;2.23;68.29;98862.58;1667431;84;20994;-62
2021/12/09 10:58:38;;;;;;;;;;;;;;;2.26;68.37;98867.56;1731249;81;20946;-61
2021/12/09 11:01:11;;;;;;;14.30;9.18;;;;;;;2.25;68.28;98867.68;1729610;81;21149;-62
2021/12/09 11:03:41;;;;;;;15.72;9.80;;;;;;;2.25;68.18;98861.95;1729322;81;21492;-61
2021/12/09 11:06:14;;;;;;;15.58;10.72;;;;;;;2.25;68.41;98846.20;1706262;83;21538;-61
2021/12/09 11:08:47;;;;;;;23.57;12.95;;;;;;;2.22;68.57;98835.97;1720128;82;20907;-60
2021/12/09 11:11:32;;;;;;;21.23;12.73;;;;;;;2.30;68.68;98832.20;1728941;82;20851;-60
2021/12/09 11:14:11;;;;;;;20.45;10.88;;;;;;;2.37;68.50;98822.81;1722848;81;21184;-61
2021/12/09 11:17:02;;;;;;;19.60;12.10;;;;;;;2.38;68.53;98823.17;1719024;82;20978;-62
2021/12/09 11:19:39;;;;;;;23.87;12.55;;;;;;;2.34;68.69;98819.17;1732783;81;20981;-61
2021/12/09 11:22:07;;;;;;;20.65;12.43;;;;;;;2.27;68.89;98824.59;1754007;80;20996;-61
2021/12/09 11:24:39;;;;;;;30.02;15.43;;;;;;;2.22;69.01;98827.26;1754989;81;20989;-62
2021/12/09 11:27:12;;;;;;;24.82;13.78;;;;;;;2.21;69.17;98825.14;1752240;80;21151;-61
2021/12/09 11:29:47;;;;;;;22.10;12.65;;;;;;;2.23;69.12;98824.52;1752196;80;20891;-62
2021/12/09 11:35:33;;;;;;;23.47;13.93;;;;;;;2.20;69.35;98809.03;1755961;81;20938;-61
2021/12/09 11:38:10;;;;;;;19.02;12.75;;;;;;;2.25;69.27;98816.02;1753153;80;20982;-61
2021/12/09 11:40:44;;;;;;;21.77;13.80;;;;;;;2.23;69.35;98817.95;1750089;80;21164;-61
2021/12/09 11:43:10;;;;;;;18.92;12.93;;;;;;;2.30;69.38;98821.70;1752292;80;21023;-60
2021/12/09 11:45:41;;;;;;;20.48;12.95;;;;;;;2.34;69.25;98825.73;1744845;81;20970;-61
2021/12/09 11:48:09;;;;;;;27.10;14.10;;;;;;;2.42;69.23;98825.86;1753894;81;21010;-60
2021/12/09 11:50:43;;;;;;;23.80;13.15;;;;;;;2.51;69.28;98821.61;1754780;80;21493;-59
2021/12/09 11:53:13;;;;;;;19.15;11.90;;;;;;;2.56;69.36;98814.63;1755941;81;39183;-59
2021/12/09 11:55:49;;;;;;;21.68;12.55;;;;;;;2.64;69.23;98816.09;1754932;80;20955;-61